createdAt,value
2022-08-28T00:01:33.142Z,74.98
2022-08-28T00:04:01.235Z,74.70
2022-08-28T00:06:28.361Z,75.06
2022-08-28T00:08:56.047Z,74.67
2022-08-28T00:11:23.654Z,74.29
2022-08-28T00:13:51.541Z,74.46
2022-08-28T00:16:19.715Z,74.34
2022-08-28T00:18:47.243Z,74.61
2022-08-28T00:21:15.083Z,74.13
2022-08-28T00:23:43.441Z,74.65
2022-08-28T00:26:31.931Z,74.73
2022-08-28T00:28:59.107Z,74.33
2022-08-28T00:31:26.064Z,74.21
2022-08-28T00:33:52.905Z,74.30
2022-08-28T00:36:20.073Z,74.51
2022-08-28T00:38:47.176Z,74.29
2022-08-28T00:41:14.086Z,73.35
2022-08-28T00:43:46.729Z,73.78
2022-08-28T00:46:22.574Z,73.44
2022-08-28T00:48:50.865Z,73.57
2022-08-28T00:51:39.353Z,73.49
2022-08-28T00:54:09.535Z,73.61
2022-08-28T00:56:40.784Z,72.97
2022-08-28T00:59:15.514Z,73.24
2022-08-28T01:01:44.147Z,73.25
2022-08-28T01:04:17.107Z,73.21
2022-08-28T01:06:48.579Z,73.77
2022-08-28T01:09:20.902Z,73.97
2022-08-28T01:11:51.488Z,73.88
2022-08-28T01:14:23.123Z,74.37
2022-08-28T01:16:55.626Z,74.87
2022-08-28T01:19:35.163Z,74.80
2022-08-28T01:22:07.320Z,74.96
2022-08-28T01:24:39.388Z,75.86
2022-08-28T01:27:06.958Z,76.12
2022-08-28T01:29:34.182Z,76.00
2022-08-28T01:32:01.282Z,75.82
2022-08-28T01:34:28.194Z,75.92
2022-08-28T01:36:54.968Z,75.92
2022-08-28T01:39:27.381Z,75.19
2022-08-28T01:41:56.233Z,74.98
2022-08-28T01:44:27.093Z,74.29
2022-08-28T01:46:58.190Z,74.13
2022-08-28T01:49:29.235Z,75.43
2022-08-28T01:51:57.989Z,74.83
2022-08-28T01:54:28.124Z,73.97
2022-08-28T01:56:55.444Z,74.58
2022-08-28T01:59:23.139Z,73.97
2022-08-28T02:01:50.063Z,74.71
2022-08-28T02:04:17.043Z,74.74
2022-08-28T02:06:44.214Z,74.17
2022-08-28T02:09:14.761Z,74.42
2022-08-28T02:11:44.394Z,74.21
2022-08-28T02:14:15.655Z,74.22
2022-08-28T02:16:42.516Z,74.46
2022-08-28T02:19:09.304Z,74.42
2022-08-28T02:21:36.375Z,74.15
2022-08-28T02:24:04.501Z,74.35
2022-08-28T02:26:31.864Z,74.68
2022-08-28T02:28:59.226Z,74.48
2022-08-28T02:31:27.364Z,74.62
2022-08-28T02:33:55.366Z,74.42
2022-08-28T02:36:23.995Z,74.73
2022-08-28T02:38:55.487Z,74.60
2022-08-28T02:41:25.856Z,74.77
2022-08-28T02:43:53.316Z,75.20
2022-08-28T02:46:20.443Z,74.80
2022-08-28T02:48:47.482Z,75.34
2022-08-28T02:51:14.960Z,75.77
2022-08-28T02:53:42.981Z,75.47
2022-08-28T02:56:10.209Z,75.85
2022-08-28T02:58:37.141Z,76.07
2022-08-28T03:01:07.703Z,75.84
2022-08-28T03:03:35.037Z,76.60
2022-08-28T03:06:04.693Z,76.26
2022-08-28T03:08:32.518Z,76.95
2022-08-28T03:11:00.584Z,76.09
2022-08-28T03:13:28.337Z,75.65
2022-08-28T03:15:56.410Z,76.33
2022-08-28T03:18:27.071Z,75.84
2022-08-28T03:20:55.937Z,75.75
2022-08-28T03:23:26.374Z,75.73
2022-08-28T03:25:57.198Z,76.23
2022-08-28T03:28:27.085Z,75.89
2022-08-28T03:30:54.455Z,76.01
2022-08-28T03:33:21.629Z,76.01
2022-08-28T03:35:49.324Z,75.66
2022-08-28T03:38:17.029Z,75.83
2022-08-28T03:40:47.194Z,76.14
2022-08-28T03:43:18.452Z,75.81
2022-08-28T03:46:02.631Z,76.22
2022-08-28T03:48:35.891Z,75.79
2022-08-28T03:51:29.539Z,76.00
2022-08-28T03:54:01.394Z,76.34
2022-08-28T03:56:32.280Z,76.38
2022-08-28T03:59:04.288Z,76.59
2022-08-28T04:01:33.188Z,76.12
2022-08-28T04:04:00.586Z,76.86
2022-08-28T04:06:28.096Z,76.26
2022-08-28T04:08:55.370Z,76.67
2022-08-28T04:11:27.865Z,76.68
2022-08-28T04:13:54.755Z,76.97
2022-08-28T04:16:21.639Z,76.88
2022-08-28T04:18:50.295Z,77.34
2022-08-28T04:21:23.578Z,77.62
2022-08-28T04:23:51.774Z,77.76
2022-08-28T04:26:25.075Z,77.81
2022-08-28T04:28:53.618Z,78.21
2022-08-28T04:31:32.027Z,78.11
2022-08-28T04:34:08.560Z,78.76
2022-08-28T04:36:36.282Z,78.55
2022-08-28T04:39:08.518Z,78.58
2022-08-28T04:41:38.672Z,78.86
2022-08-28T04:44:06.934Z,78.63
2022-08-28T04:46:34.198Z,78.90
2022-08-28T04:49:01.455Z,79.35
2022-08-28T04:51:29.261Z,79.27
2022-08-28T04:53:57.634Z,78.98
2022-08-28T04:56:26.597Z,78.51
2022-08-28T04:58:54.519Z,79.06
2022-08-28T05:01:24.664Z,78.60
2022-08-28T05:03:59.273Z,78.65
2022-08-28T05:06:28.812Z,78.40
2022-08-28T05:08:59.320Z,78.89
2022-08-28T05:11:34.452Z,78.58
2022-08-28T05:14:05.192Z,78.43
2022-08-28T05:16:39.307Z,78.72
2022-08-28T05:19:06.387Z,78.22
2022-08-28T05:21:33.221Z,78.12
2022-08-28T05:24:00.033Z,78.19
2022-08-28T05:26:29.677Z,78.10
2022-08-28T05:28:58.142Z,78.21
2022-08-28T05:31:27.240Z,78.32
2022-08-28T05:33:54.350Z,78.08
2022-08-28T05:36:25.771Z,78.50
2022-08-28T05:38:58.753Z,78.25
2022-08-28T05:41:30.169Z,78.63
2022-08-28T05:44:00.126Z,78.12
2022-08-28T05:46:28.339Z,77.68
2022-08-28T05:48:56.104Z,78.17
2022-08-28T05:51:26.699Z,78.20
2022-08-28T05:53:57.560Z,78.01
2022-08-28T05:56:30.021Z,77.82
2022-08-28T05:58:59.997Z,77.33
2022-08-28T06:01:34.348Z,77.51
2022-08-28T06:04:08.918Z,77.32
2022-08-28T06:06:39.268Z,77.77
2022-08-28T06:09:14.169Z,77.33
2022-08-28T06:11:44.755Z,77.61
2022-08-28T06:14:17.945Z,77.89
2022-08-28T06:16:49.816Z,77.76
2022-08-28T06:19:18.094Z,77.77
2022-08-28T06:21:46.968Z,77.58
2022-08-28T06:24:14.591Z,77.82
2022-08-28T06:26:41.689Z,77.58
2022-08-28T06:29:16.051Z,77.06
2022-08-28T06:31:43.075Z,76.98
2022-08-28T06:34:10.263Z,76.23
2022-08-28T06:36:41.945Z,76.67
2022-08-28T06:39:12.068Z,76.35
2022-08-28T06:41:43.174Z,76.75
2022-08-28T06:44:13.550Z,76.24
2022-08-28T06:46:41.823Z,76.60
2022-08-28T06:49:09.547Z,75.01
2022-08-28T06:51:36.803Z,75.18
2022-08-28T06:54:04.596Z,74.67
2022-08-28T06:56:32.822Z,74.51
2022-08-28T06:59:00.252Z,74.69
2022-08-28T07:01:32.560Z,74.13
2022-08-28T07:04:05.893Z,73.23
2022-08-28T07:06:36.872Z,72.93
2022-08-28T07:09:07.148Z,72.18
2022-08-28T07:11:36.157Z,71.53
2022-08-28T07:14:04.546Z,72.08
2022-08-28T07:16:38.308Z,71.89
2022-08-28T07:19:10.486Z,71.63
2022-08-28T07:21:41.685Z,72.16
2022-08-28T07:24:12.780Z,71.52
2022-08-28T07:26:42.322Z,71.46
2022-08-28T07:29:11.606Z,71.90
2022-08-28T07:31:46.890Z,71.72
2022-08-28T07:34:16.328Z,71.99
2022-08-28T07:36:44.689Z,71.61
2022-08-28T07:39:14.384Z,71.52
2022-08-28T07:41:43.089Z,71.43
2022-08-28T07:44:32.451Z,71.51
2022-08-28T07:47:04.500Z,70.64
2022-08-28T07:49:33.839Z,70.37
2022-08-28T07:52:02.234Z,70.31
2022-08-28T07:54:29.192Z,70.89
2022-08-28T07:56:55.991Z,70.46
2022-08-28T07:59:23.699Z,70.66
2022-08-28T08:01:51.720Z,69.83
2022-08-28T08:04:21.776Z,69.76
2022-08-28T08:06:50.622Z,70.14
2022-08-28T08:09:20.247Z,69.60
2022-08-28T08:11:49.530Z,69.65
2022-08-28T08:14:17.363Z,69.01
2022-08-28T08:16:46.982Z,67.72
2022-08-28T08:19:16.668Z,67.56
2022-08-28T08:21:48.408Z,67.00
2022-08-28T08:24:25.995Z,66.73
2022-08-28T08:26:59.513Z,65.70
2022-08-28T08:29:35.779Z,66.26
2022-08-28T08:32:08.953Z,66.49
2022-08-28T08:34:40.852Z,66.49
2022-08-28T08:37:09.338Z,66.02
2022-08-28T08:39:37.162Z,67.11
2022-08-28T08:42:17.775Z,66.40
2022-08-28T08:44:47.625Z,66.56
2022-08-28T08:47:35.546Z,66.01
2022-08-28T08:50:35.695Z,66.40
2022-08-28T08:53:23.322Z,66.47
2022-08-28T08:55:54.474Z,66.45
2022-08-28T08:58:32.903Z,66.86
2022-08-28T09:01:23.882Z,66.77
2022-08-28T09:04:18.749Z,66.29
2022-08-28T09:06:54.497Z,65.90
2022-08-28T09:09:37.256Z,66.29
2022-08-28T09:12:09.330Z,66.00
2022-08-28T09:15:06.154Z,66.46
2022-08-28T09:17:48.695Z,65.21
2022-08-28T09:20:29.142Z,65.54
2022-08-28T09:23:00.350Z,65.03
2022-08-28T09:25:51.421Z,65.52
2022-08-28T09:28:25.880Z,64.70
2022-08-28T09:31:18.927Z,65.27
2022-08-28T09:33:51.422Z,64.24
2022-08-28T09:36:34.965Z,64.13
2022-08-28T09:39:12.166Z,63.80
2022-08-28T09:42:13.852Z,64.02
2022-08-28T09:45:16.351Z,64.37
2022-08-28T09:48:00.684Z,64.04
2022-08-28T09:50:44.603Z,63.96
2022-08-28T09:53:11.655Z,63.89
2022-08-28T09:55:59.806Z,64.00
2022-08-28T09:58:39.888Z,64.43
2022-08-28T10:01:44.556Z,64.16
2022-08-28T10:04:50.969Z,64.19
2022-08-28T10:07:39.259Z,63.78
2022-08-28T10:10:27.663Z,64.48
2022-08-28T10:13:28.875Z,64.13
2022-08-28T10:16:28.792Z,63.53
2022-08-28T10:19:10.963Z,62.61
2022-08-28T10:21:55.199Z,62.24
2022-08-28T10:24:31.255Z,62.55
2022-08-28T10:27:31.654Z,62.68
2022-08-28T10:30:15.172Z,63.28
2022-08-28T10:33:13.936Z,63.29
2022-08-28T10:35:53.065Z,63.73
2022-08-28T10:38:40.193Z,64.00
2022-08-28T10:41:33.717Z,64.18
2022-08-28T10:44:05.911Z,64.51
2022-08-28T10:46:52.004Z,64.81
2022-08-28T10:49:41.634Z,64.74
2022-08-28T10:52:19.757Z,64.50
2022-08-28T10:55:01.994Z,64.55
2022-08-28T10:58:24.116Z,64.88
2022-08-28T11:01:04.570Z,64.09
2022-08-28T11:03:44.741Z,64.05
2022-08-28T11:06:29.044Z,63.49
2022-08-28T11:09:20.441Z,63.98
2022-08-28T11:11:50.988Z,63.67
2022-08-28T11:14:47.929Z,64.34
2022-08-28T11:17:30.503Z,64.08
2022-08-28T11:20:22.866Z,63.42
2022-08-28T11:23:06.636Z,63.41
2022-08-28T11:26:04.310Z,63.09
2022-08-28T11:28:34.524Z,63.53
2022-08-28T11:31:01.289Z,62.02
2022-08-28T11:33:34.263Z,63.12
2022-08-28T11:36:02.051Z,63.18
2022-08-28T11:39:17.749Z,62.99
2022-08-28T11:42:09.398Z,62.86
2022-08-28T11:44:44.795Z,63.28
2022-08-28T11:47:35.968Z,63.32
2022-08-28T11:50:18.833Z,63.98
2022-08-28T11:53:07.798Z,63.93
2022-08-28T11:56:31.877Z,64.93
2022-08-28T11:59:25.513Z,65.42
2022-08-28T12:02:49.619Z,64.40
2022-08-28T12:05:16.539Z,63.28
2022-08-28T12:07:50.325Z,63.71
2022-08-28T12:10:20.636Z,64.53
2022-08-28T12:12:47.621Z,63.84
2022-08-28T12:15:29.862Z,63.42
2022-08-28T12:18:25.884Z,63.99
2022-08-28T12:21:00.263Z,62.58
2022-08-28T12:23:44.903Z,62.53
2022-08-28T12:26:38.983Z,62.84
2022-08-28T12:29:37.634Z,62.70
2022-08-28T12:32:36.754Z,61.71
2022-08-28T12:35:17.238Z,61.66
2022-08-28T12:38:01.049Z,60.75
2022-08-28T12:40:47.401Z,60.37
2022-08-28T12:43:41.712Z,59.77
2022-08-28T12:46:38.550Z,59.45
2022-08-28T12:49:27.398Z,58.60
2022-08-28T12:52:22.409Z,59.30
2022-08-28T12:54:51.271Z,58.84
2022-08-28T12:57:23.219Z,59.53
2022-08-28T12:59:55.874Z,59.40
2022-08-28T13:02:33.666Z,59.21
2022-08-28T13:05:07.899Z,58.22
2022-08-28T13:07:45.555Z,59.34
2022-08-28T13:10:22.837Z,57.96
2022-08-28T13:13:46.611Z,58.96
2022-08-28T13:16:46.624Z,58.97
2022-08-28T13:19:25.176Z,58.20
2022-08-28T13:22:08.395Z,57.41
2022-08-28T13:24:35.304Z,57.57
2022-08-28T13:27:19.162Z,57.99
2022-08-28T13:30:20.884Z,57.57
2022-08-28T13:33:20.152Z,57.21
2022-08-28T13:35:48.698Z,57.17
2022-08-28T13:38:19.374Z,57.30
2022-08-28T13:41:00.141Z,57.23
2022-08-28T13:43:43.377Z,57.02
2022-08-28T13:46:10.454Z,57.10
2022-08-28T13:48:37.676Z,57.55
2022-08-28T13:51:12.011Z,57.64
2022-08-28T13:53:44.826Z,57.41
2022-08-28T13:56:11.611Z,58.59
2022-08-28T13:58:38.496Z,58.23
2022-08-28T14:01:06.642Z,58.02
2022-08-28T14:03:36.486Z,57.30
2022-08-28T14:06:16.958Z,57.30
2022-08-28T14:08:46.226Z,57.37
2022-08-28T14:11:15.583Z,57.42
2022-08-28T14:13:47.392Z,57.85
2022-08-28T14:16:25.539Z,58.07
2022-08-28T14:18:53.633Z,57.89
2022-08-28T14:21:21.971Z,57.34
2022-08-28T14:23:49.023Z,57.68
2022-08-28T14:26:16.003Z,57.12
2022-08-28T14:28:42.945Z,57.38
2022-08-28T14:31:14.171Z,57.53
2022-08-28T14:33:45.172Z,57.99
2022-08-28T14:36:21.184Z,57.84
2022-08-28T14:38:51.704Z,58.07
2022-08-28T14:41:22.674Z,57.89
2022-08-28T14:43:49.981Z,57.58
2022-08-28T14:46:19.900Z,57.80
2022-08-28T14:48:48.034Z,58.27
2022-08-28T14:51:17.697Z,58.07
2022-08-28T14:53:45.261Z,57.43
2022-08-28T14:56:12.069Z,57.64
2022-08-28T14:58:39.389Z,57.27
2022-08-28T15:01:06.846Z,56.99
2022-08-28T15:03:33.959Z,56.93
2022-08-28T15:06:04.949Z,56.05
2022-08-28T15:08:33.560Z,56.18
2022-08-28T15:11:07.012Z,56.50
2022-08-28T15:13:34.339Z,56.31
2022-08-28T15:16:21.521Z,55.55
2022-08-28T15:18:48.888Z,54.52
2022-08-28T15:21:27.154Z,54.54
2022-08-28T15:23:57.805Z,54.08
2022-08-28T15:26:26.522Z,53.79
2022-08-28T15:28:55.940Z,54.94
2022-08-28T15:31:24.683Z,54.90
2022-08-28T15:33:52.143Z,54.90
2022-08-28T15:36:20.208Z,54.85
2022-08-28T15:39:06.306Z,55.11
2022-08-28T15:41:33.216Z,55.35
2022-08-28T15:44:02.258Z,55.34
2022-08-28T15:46:34.634Z,55.82
2022-08-28T15:49:07.810Z,55.90
2022-08-28T15:51:36.627Z,55.73
2022-08-28T15:54:04.972Z,56.21
2022-08-28T15:56:31.824Z,56.15
2022-08-28T15:58:58.606Z,56.61
2022-08-28T16:01:25.817Z,56.85
2022-08-28T16:03:53.398Z,56.67
2022-08-28T16:06:21.968Z,56.16
2022-08-28T16:08:49.735Z,56.59
2022-08-28T16:11:22.395Z,55.67
2022-08-28T16:13:51.418Z,55.49
2022-08-28T16:16:19.797Z,55.73
2022-08-28T16:18:47.235Z,55.58
2022-08-28T16:21:14.675Z,55.84
2022-08-28T16:23:42.035Z,55.62
2022-08-28T16:26:10.871Z,56.09
2022-08-28T16:28:38.516Z,56.12
2022-08-28T16:31:08.220Z,56.43
2022-08-28T16:33:47.711Z,56.80
2022-08-28T16:36:16.721Z,57.36
2022-08-28T16:38:47.484Z,57.81
2022-08-28T16:41:22.130Z,58.41
2022-08-28T16:43:50.608Z,58.83
2022-08-28T16:46:22.349Z,58.36
2022-08-28T16:48:50.457Z,58.73
2022-08-28T16:51:18.871Z,58.33
2022-08-28T16:53:46.364Z,58.64
2022-08-28T16:56:17.274Z,58.62
2022-08-28T16:58:44.974Z,58.44
2022-08-28T17:01:14.048Z,58.08
2022-08-28T17:03:42.574Z,58.07
2022-08-28T17:06:31.466Z,58.00
2022-08-28T17:08:59.496Z,58.34
2022-08-28T17:11:28.339Z,58.19
2022-08-28T17:13:56.089Z,58.25
2022-08-28T17:16:25.421Z,57.79
2022-08-28T17:18:53.018Z,57.95
2022-08-28T17:21:40.528Z,58.35
2022-08-28T17:24:12.500Z,58.43
2022-08-28T17:26:41.298Z,58.66
2022-08-28T17:29:09.398Z,58.43
2022-08-28T17:31:36.683Z,58.60
2022-08-28T17:34:07.443Z,58.36
2022-08-28T17:36:38.440Z,58.88
2022-08-28T17:39:11.727Z,58.75
2022-08-28T17:41:41.297Z,59.11
2022-08-28T17:44:10.456Z,59.42
2022-08-28T17:46:38.433Z,59.08
2022-08-28T17:49:08.453Z,59.08
2022-08-28T17:51:43.842Z,59.34
2022-08-28T17:54:14.059Z,58.94
2022-08-28T17:56:41.882Z,59.00
2022-08-28T17:59:10.454Z,59.33
2022-08-28T18:01:38.573Z,59.20
2022-08-28T18:04:06.230Z,58.66
2022-08-28T18:06:33.535Z,59.21
2022-08-28T18:09:00.959Z,59.31
2022-08-28T18:11:30.558Z,58.55
2022-08-28T18:13:59.724Z,58.66
2022-08-28T18:16:31.191Z,58.57
2022-08-28T18:19:00.669Z,58.43
2022-08-28T18:21:29.548Z,58.61
2022-08-28T18:23:57.332Z,58.50
2022-08-28T18:26:24.762Z,58.62
2022-08-28T18:28:53.253Z,59.01
2022-08-28T18:31:21.434Z,59.25
2022-08-28T18:33:52.289Z,58.93
2022-08-28T18:36:19.173Z,59.09
2022-08-28T18:38:47.313Z,59.21
2022-08-28T18:41:14.268Z,59.67
2022-08-28T18:43:42.087Z,59.28
2022-08-28T18:46:09.945Z,59.62
2022-08-28T18:48:37.698Z,59.76
2022-08-28T18:51:11.662Z,59.40
2022-08-28T18:53:39.195Z,59.18
2022-08-28T18:56:10.607Z,59.88
2022-08-28T18:58:41.572Z,60.09
2022-08-28T19:01:10.359Z,59.75
2022-08-28T19:03:39.612Z,59.91
2022-08-28T19:06:15.623Z,59.94
2022-08-28T19:08:43.215Z,60.00
2022-08-28T19:11:13.320Z,59.80
2022-08-28T19:13:41.746Z,59.41
2022-08-28T19:16:09.822Z,60.12
2022-08-28T19:18:36.947Z,60.52
2022-08-28T19:21:14.930Z,60.09
2022-08-28T19:23:55.418Z,60.60
2022-08-28T19:26:25.323Z,60.52
2022-08-28T19:28:53.332Z,60.83
2022-08-28T19:31:21.582Z,60.84
2022-08-28T19:33:48.740Z,61.00
2022-08-28T19:36:15.747Z,60.79
2022-08-28T19:38:43.306Z,60.96
2022-08-28T19:41:12.862Z,61.52
2022-08-28T19:43:44.316Z,61.61
2022-08-28T19:46:19.820Z,61.43
2022-08-28T19:48:51.003Z,61.70
2022-08-28T19:51:23.265Z,61.91
2022-08-28T19:53:58.403Z,61.91
2022-08-28T19:56:29.902Z,62.05
2022-08-28T19:59:00.469Z,62.24
2022-08-28T20:01:30.285Z,62.57
2022-08-28T20:04:00.560Z,62.74
2022-08-28T20:06:31.361Z,62.69
2022-08-28T20:08:58.638Z,63.23
2022-08-28T20:11:30.320Z,63.57
2022-08-28T20:14:04.473Z,63.79
2022-08-28T20:16:37.392Z,63.89
2022-08-28T20:19:07.832Z,63.93
2022-08-28T20:21:38.346Z,64.53
2022-08-28T20:24:14.417Z,64.29
2022-08-28T20:26:41.691Z,64.89
2022-08-28T20:29:10.378Z,64.35
2022-08-28T20:31:40.822Z,64.53
2022-08-28T20:34:12.956Z,64.72
2022-08-28T20:36:40.731Z,64.79
2022-08-28T20:39:09.436Z,64.85
2022-08-28T20:41:42.024Z,65.07
2022-08-28T20:44:12.789Z,65.48
2022-08-28T20:46:42.228Z,65.72
2022-08-28T20:49:15.119Z,65.64
2022-08-28T20:51:54.576Z,65.86
2022-08-28T20:54:33.942Z,65.93
2022-08-28T20:57:06.005Z,65.85
2022-08-28T20:59:40.084Z,66.53
2022-08-28T21:02:23.704Z,66.14
2022-08-28T21:04:52.037Z,66.27
2022-08-28T21:07:23.625Z,66.24
2022-08-28T21:10:04.540Z,65.84
2022-08-28T21:12:39.989Z,66.10
2022-08-28T21:15:10.931Z,65.60
2022-08-28T21:17:39.597Z,66.34
2022-08-28T21:20:12.828Z,66.13
2022-08-28T21:22:41.278Z,65.38
2022-08-28T21:25:11.114Z,65.97
2022-08-28T21:27:39.289Z,66.38
2022-08-28T21:30:09.081Z,66.07
2022-08-28T21:32:36.173Z,65.95
2022-08-28T21:35:07.012Z,65.94
2022-08-28T21:37:34.927Z,66.14
2022-08-28T21:40:02.322Z,66.62
2022-08-28T21:42:29.337Z,66.77
2022-08-28T21:44:56.537Z,67.12
2022-08-28T21:47:24.668Z,66.96
2022-08-28T21:49:56.143Z,66.89
2022-08-28T21:52:28.935Z,66.79
2022-08-28T21:55:08.765Z,67.21
2022-08-28T21:57:36.256Z,67.32
2022-08-28T22:00:12.477Z,66.88
2022-08-28T22:02:39.676Z,67.28
2022-08-28T22:05:06.962Z,67.67
2022-08-28T22:07:34.237Z,67.41
2022-08-28T22:10:01.241Z,68.01
2022-08-28T22:12:28.055Z,67.44
2022-08-28T22:14:57.927Z,68.41
2022-08-28T22:17:24.866Z,67.88
2022-08-28T22:19:52.446Z,67.76
2022-08-28T22:22:38.295Z,68.23
2022-08-28T22:25:06.196Z,68.61
2022-08-28T22:27:34.611Z,67.97
2022-08-28T22:30:01.748Z,68.50
2022-08-28T22:32:28.840Z,68.20
2022-08-28T22:34:55.740Z,68.03
2022-08-28T22:37:23.308Z,68.30
2022-08-28T22:39:50.623Z,68.35
2022-08-28T22:42:17.549Z,68.22
2022-08-28T22:44:44.389Z,68.57
2022-08-28T22:47:11.560Z,68.37
2022-08-28T22:49:39.523Z,68.52
2022-08-28T22:52:10.818Z,68.82
2022-08-28T22:54:38.220Z,68.94
2022-08-28T22:57:05.871Z,68.59
2022-08-28T22:59:34.386Z,68.42
2022-08-28T23:02:01.634Z,69.01
2022-08-28T23:04:28.560Z,68.62
2022-08-28T23:06:55.426Z,69.33
2022-08-28T23:09:22.737Z,69.40
2022-08-28T23:11:49.773Z,69.25
2022-08-28T23:14:16.926Z,69.04
2022-08-28T23:16:44.932Z,68.94
2022-08-28T23:19:13.531Z,68.83
2022-08-28T23:21:43.895Z,68.97
2022-08-28T23:24:16.236Z,69.03
2022-08-28T23:26:45.111Z,68.60
2022-08-28T23:29:12.753Z,68.98
2022-08-28T23:31:39.895Z,68.44
2022-08-28T23:34:09.635Z,68.84
2022-08-28T23:36:44.044Z,69.12
2022-08-28T23:39:10.989Z,69.07
2022-08-28T23:41:38.300Z,69.18
2022-08-28T23:44:09.013Z,69.12
2022-08-28T23:46:36.865Z,68.93
2022-08-28T23:49:08.427Z,68.96
2022-08-28T23:51:35.637Z,68.83
2022-08-28T23:54:02.518Z,69.37
2022-08-28T23:56:30.965Z,69.13
2022-08-28T23:58:57.778Z,69.39
